createdAt,value
2022-11-20T00:00:47.139Z,2.53
2022-11-20T00:03:34.087Z,2.54
2022-11-20T00:06:22.331Z,2.53
2022-11-20T00:09:10.907Z,2.49
2022-11-20T00:11:57.661Z,2.46
2022-11-20T00:14:44.439Z,2.41
2022-11-20T00:17:31.256Z,2.49
2022-11-20T00:20:18.122Z,2.53
2022-11-20T00:23:04.926Z,2.42
2022-11-20T00:25:51.724Z,2.44
2022-11-20T00:28:38.903Z,2.41
2022-11-20T00:31:26.388Z,2.36
2022-11-20T00:34:13.281Z,2.20
2022-11-20T00:37:00.050Z,2.25
2022-11-20T00:39:46.815Z,2.21
2022-11-20T00:42:33.871Z,1.88
2022-11-20T00:45:20.683Z,2.10
2022-11-20T00:48:07.468Z,1.80
2022-11-20T00:50:55.206Z,2.14
2022-11-20T00:53:42.171Z,2.09
2022-11-20T00:56:29.626Z,2.28
2022-11-20T00:59:16.488Z,2.26
2022-11-20T01:02:03.306Z,2.21
2022-11-20T01:04:50.365Z,2.36
2022-11-20T01:07:37.254Z,2.37
2022-11-20T01:10:24.139Z,2.08
2022-11-20T01:13:29.364Z,2.34
2022-11-20T01:16:18.868Z,2.31
2022-11-20T01:19:08.663Z,2.32
2022-11-20T01:21:55.704Z,2.40
2022-11-20T01:24:42.526Z,2.44
2022-11-20T01:27:29.328Z,2.50
2022-11-20T01:30:16.210Z,2.51
2022-11-20T01:33:03.043Z,2.44
2022-11-20T01:35:50.016Z,2.52
2022-11-20T01:38:37.185Z,2.50
2022-11-20T01:41:43.329Z,2.53
2022-11-20T01:44:53.762Z,2.59
2022-11-20T01:47:47.456Z,2.57
2022-11-20T01:50:34.761Z,2.62
2022-11-20T01:53:28.227Z,2.66
2022-11-20T01:56:15.739Z,2.56
2022-11-20T01:59:06.886Z,2.47
2022-11-20T02:01:54.543Z,2.45
2022-11-20T02:04:41.504Z,2.50
2022-11-20T02:07:28.865Z,2.45
2022-11-20T02:10:16.566Z,2.33
2022-11-20T02:13:23.545Z,2.48
2022-11-20T02:16:30.171Z,2.44
2022-11-20T02:19:29.133Z,2.60
2022-11-20T02:22:23.436Z,2.57
2022-11-20T02:25:11.074Z,2.54
2022-11-20T02:27:57.928Z,2.62
2022-11-20T02:30:44.925Z,2.62
2022-11-20T02:33:31.696Z,2.66
2022-11-20T02:36:18.535Z,2.71
2022-11-20T02:39:06.419Z,2.62
2022-11-20T02:41:55.054Z,2.57
2022-11-20T02:44:42.055Z,2.56
2022-11-20T02:47:28.867Z,2.63
2022-11-20T02:50:16.057Z,2.56
2022-11-20T02:53:02.855Z,2.53
2022-11-20T02:55:49.633Z,2.68
2022-11-20T02:58:36.444Z,2.59
2022-11-20T03:01:23.550Z,2.53
2022-11-20T03:04:10.386Z,2.41
2022-11-20T03:06:57.439Z,2.40
2022-11-20T03:09:44.236Z,2.53
2022-11-20T03:12:31.053Z,2.47
2022-11-20T03:15:17.851Z,2.46
2022-11-20T03:18:04.863Z,2.60
2022-11-20T03:20:58.319Z,2.52
2022-11-20T03:23:45.204Z,2.52
2022-11-20T03:26:32.016Z,2.47
2022-11-20T03:29:19.165Z,2.40
2022-11-20T03:32:06.295Z,2.38
2022-11-20T03:34:33.175Z,2.35
2022-11-20T03:36:59.694Z,2.46
2022-11-20T03:39:27.047Z,2.44
2022-11-20T03:41:53.587Z,2.53
2022-11-20T03:44:22.683Z,2.50
2022-11-20T03:46:49.271Z,2.58
2022-11-20T03:49:15.804Z,2.43
2022-11-20T03:51:42.239Z,2.50
2022-11-20T03:54:08.979Z,2.48
2022-11-20T03:56:38.634Z,2.40
2022-11-20T03:59:06.032Z,2.46
2022-11-20T04:01:35.447Z,2.51
2022-11-20T04:04:02.704Z,2.57
2022-11-20T04:06:33.870Z,2.54
2022-11-20T04:09:00.426Z,2.60
2022-11-20T04:11:32.086Z,2.60
2022-11-20T04:14:01.281Z,2.58
2022-11-20T04:16:30.676Z,2.58
2022-11-20T04:18:59.462Z,2.54
2022-11-20T04:21:26.852Z,2.47
2022-11-20T04:23:54.499Z,2.63
2022-11-20T04:26:22.837Z,2.61
2022-11-20T04:28:49.345Z,2.44
2022-11-20T04:31:18.967Z,2.47
2022-11-20T04:33:46.170Z,2.49
2022-11-20T04:36:13.890Z,2.56
2022-11-20T04:38:41.103Z,2.62
2022-11-20T04:41:10.737Z,2.62
2022-11-20T04:43:37.242Z,2.70
2022-11-20T04:46:03.714Z,2.65
2022-11-20T04:48:30.982Z,2.59
2022-11-20T04:50:58.003Z,2.68
2022-11-20T04:53:25.212Z,2.66
2022-11-20T04:55:51.666Z,2.67
2022-11-20T04:58:18.164Z,2.69
2022-11-20T05:00:44.757Z,2.62
2022-11-20T05:03:11.428Z,2.63
2022-11-20T05:05:37.946Z,2.62
2022-11-20T05:08:04.745Z,2.61
2022-11-20T05:10:31.244Z,2.63
2022-11-20T05:12:58.283Z,2.51
2022-11-20T05:15:25.060Z,2.62
2022-11-20T05:17:52.670Z,2.63
2022-11-20T05:20:20.631Z,2.62
2022-11-20T05:22:47.126Z,2.56
2022-11-20T05:25:13.712Z,2.51
2022-11-20T05:27:40.440Z,2.59
2022-11-20T05:30:08.638Z,2.57
2022-11-20T05:32:35.154Z,2.49
2022-11-20T05:35:01.720Z,2.53
2022-11-20T05:37:28.176Z,2.57
2022-11-20T05:39:54.724Z,2.61
2022-11-20T05:42:33.211Z,2.67
2022-11-20T05:45:01.508Z,2.73
2022-11-20T05:47:29.464Z,2.73
2022-11-20T05:49:55.955Z,2.74
2022-11-20T05:52:22.599Z,2.68
2022-11-20T05:54:49.107Z,2.71
2022-11-20T05:57:15.703Z,2.63
2022-11-20T05:59:42.362Z,2.49
2022-11-20T06:02:09.097Z,2.65
2022-11-20T06:04:35.574Z,2.68
2022-11-20T06:07:02.214Z,2.69
2022-11-20T06:09:28.722Z,2.77
2022-11-20T06:11:55.506Z,2.82
2022-11-20T06:14:22.098Z,2.84
2022-11-20T06:16:48.560Z,2.80
2022-11-20T06:19:15.861Z,2.83
2022-11-20T06:21:42.343Z,2.76
2022-11-20T06:24:10.450Z,2.79
2022-11-20T06:26:37.075Z,2.83
2022-11-20T06:29:03.640Z,2.88
2022-11-20T06:31:30.478Z,2.85
2022-11-20T06:33:57.007Z,2.83
2022-11-20T06:36:24.065Z,2.84
2022-11-20T06:38:51.049Z,2.86
2022-11-20T06:41:21.058Z,2.85
2022-11-20T06:43:48.074Z,2.84
2022-11-20T06:46:18.406Z,2.78
2022-11-20T06:48:45.283Z,2.66
2022-11-20T06:51:12.267Z,2.73
2022-11-20T06:53:39.118Z,2.58
2022-11-20T06:56:06.432Z,2.69
2022-11-20T06:58:34.763Z,2.75
2022-11-20T07:01:03.898Z,2.74
2022-11-20T07:03:30.949Z,2.72
2022-11-20T07:05:58.579Z,2.62
2022-11-20T07:08:25.741Z,2.70
2022-11-20T07:10:52.384Z,2.78
2022-11-20T07:13:18.946Z,2.80
2022-11-20T07:15:45.487Z,2.85
2022-11-20T07:18:12.133Z,2.83
2022-11-20T07:20:38.621Z,2.82
2022-11-20T07:23:05.091Z,2.77
2022-11-20T07:25:31.660Z,2.85
2022-11-20T07:28:01.611Z,2.82
2022-11-20T07:30:29.342Z,2.89
2022-11-20T07:32:57.298Z,2.79
2022-11-20T07:35:25.405Z,2.81
2022-11-20T07:37:52.060Z,2.85
2022-11-20T07:40:19.574Z,2.79
2022-11-20T07:42:54.287Z,2.81
2022-11-20T07:45:22.321Z,2.78
2022-11-20T07:47:48.921Z,2.87
2022-11-20T07:50:16.166Z,2.92
2022-11-20T07:52:42.837Z,2.88
2022-11-20T07:55:10.618Z,2.90
2022-11-20T07:57:37.403Z,2.89
2022-11-20T08:00:06.714Z,2.98
2022-11-20T08:02:40.220Z,2.93
2022-11-20T08:05:07.547Z,2.98
2022-11-20T08:07:44.830Z,2.94
2022-11-20T08:10:14.167Z,2.94
2022-11-20T08:13:07.019Z,3.00
2022-11-20T08:15:34.440Z,3.01
2022-11-20T08:18:31.125Z,3.08
2022-11-20T08:20:58.042Z,3.07
2022-11-20T08:23:24.689Z,3.11
2022-11-20T08:25:52.063Z,3.16
2022-11-20T08:28:21.888Z,3.17
2022-11-20T08:30:50.726Z,3.19
2022-11-20T08:33:18.283Z,3.19
2022-11-20T08:35:45.118Z,3.17
2022-11-20T08:38:11.652Z,3.23
2022-11-20T08:40:38.138Z,3.15
2022-11-20T08:43:05.235Z,3.14
2022-11-20T08:45:34.653Z,3.22
2022-11-20T08:48:03.360Z,3.22
2022-11-20T08:50:32.460Z,3.24
2022-11-20T08:53:04.342Z,3.29
2022-11-20T08:55:30.823Z,3.35
2022-11-20T08:57:57.318Z,3.34
2022-11-20T09:00:23.894Z,3.36
2022-11-20T09:02:50.392Z,3.40
2022-11-20T09:05:16.867Z,3.40
2022-11-20T09:07:43.409Z,3.44
2022-11-20T09:12:57.805Z,3.47
2022-11-20T09:15:25.743Z,3.48
2022-11-20T09:17:57.126Z,3.58
2022-11-20T09:20:23.846Z,3.62
2022-11-20T09:22:50.321Z,3.62
2022-11-20T09:25:17.201Z,3.63
2022-11-20T09:27:45.048Z,3.63
2022-11-20T09:30:12.594Z,3.66
2022-11-20T09:32:42.737Z,3.69
2022-11-20T09:35:10.064Z,3.77
2022-11-20T09:37:36.616Z,3.74
2022-11-20T09:40:03.338Z,3.73
2022-11-20T09:42:40.915Z,3.74
2022-11-20T09:45:19.666Z,3.74
2022-11-20T09:48:17.060Z,3.72
2022-11-20T09:50:54.428Z,3.70
2022-11-20T09:53:39.522Z,3.76
2022-11-20T09:56:06.047Z,3.67
2022-11-20T09:58:38.502Z,3.75
2022-11-20T10:01:22.073Z,3.73
2022-11-20T10:03:57.092Z,3.59
2022-11-20T10:07:10.501Z,3.55
2022-11-20T10:09:44.744Z,3.60
2022-11-20T10:12:30.504Z,3.67
2022-11-20T10:15:29.817Z,3.68
2022-11-20T10:18:30.549Z,3.69
2022-11-20T10:21:15.514Z,3.68
2022-11-20T10:23:49.449Z,3.76
2022-11-20T10:26:26.968Z,3.82
2022-11-20T10:29:12.047Z,3.86
2022-11-20T10:31:42.375Z,3.89
2022-11-20T10:34:23.189Z,3.91
2022-11-20T10:37:00.402Z,3.77
2022-11-20T10:39:32.218Z,3.54
2022-11-20T10:42:00.472Z,3.59
2022-11-20T10:44:53.712Z,3.67
2022-11-20T10:47:22.883Z,3.69
2022-11-20T10:49:56.149Z,3.70
2022-11-20T10:52:36.847Z,3.85
2022-11-20T10:55:27.030Z,3.72
2022-11-20T10:57:58.065Z,3.87
2022-11-20T11:00:24.515Z,3.69
2022-11-20T11:02:55.985Z,3.66
2022-11-20T11:05:40.991Z,3.79
2022-11-20T11:08:17.677Z,3.76
2022-11-20T11:10:59.895Z,3.71
2022-11-20T11:13:29.077Z,3.88
2022-11-20T11:15:55.965Z,3.87
2022-11-20T11:18:28.439Z,3.86
2022-11-20T11:20:57.037Z,3.48
2022-11-20T11:23:34.218Z,3.33
2022-11-20T11:26:02.549Z,3.46
2022-11-20T11:28:29.771Z,3.47
2022-11-20T11:30:56.806Z,3.48
2022-11-20T11:33:36.827Z,3.58
2022-11-20T11:36:18.814Z,3.75
2022-11-20T11:38:45.565Z,3.84
2022-11-20T11:41:23.454Z,3.92
2022-11-20T11:44:17.234Z,3.93
2022-11-20T11:46:57.571Z,3.98
2022-11-20T11:49:24.490Z,4.06
2022-11-20T11:52:03.361Z,4.05
2022-11-20T11:54:37.613Z,4.16
2022-11-20T11:57:23.891Z,4.24
2022-11-20T12:00:07.631Z,4.45
2022-11-20T12:02:51.268Z,4.47
2022-11-20T12:05:22.903Z,4.55
2022-11-20T12:07:59.147Z,4.64
2022-11-20T12:10:58.627Z,4.66
2022-11-20T12:13:34.519Z,4.55
2022-11-20T12:16:02.817Z,4.49
2022-11-20T12:18:30.414Z,4.45
2022-11-20T12:21:25.362Z,4.48
2022-11-20T12:24:05.725Z,4.47
2022-11-20T12:26:59.884Z,4.32
2022-11-20T12:29:35.344Z,4.39
2022-11-20T12:32:04.703Z,4.40
2022-11-20T12:34:59.193Z,4.39
2022-11-20T12:38:07.755Z,4.32
2022-11-20T12:40:47.528Z,4.50
2022-11-20T12:43:40.239Z,4.54
2022-11-20T12:46:22.628Z,4.50
2022-11-20T12:48:52.073Z,4.55
2022-11-20T12:51:27.834Z,4.60
2022-11-20T12:54:26.058Z,4.63
2022-11-20T12:57:09.974Z,4.58
2022-11-20T12:59:51.465Z,4.47
2022-11-20T13:02:36.697Z,4.49
2022-11-20T13:05:05.983Z,4.58
2022-11-20T13:07:33.982Z,4.51
2022-11-20T13:10:01.660Z,4.51
2022-11-20T13:12:42.000Z,4.58
2022-11-20T13:15:33.283Z,4.63
2022-11-20T13:18:02.290Z,4.68
2022-11-20T13:20:30.466Z,4.68
2022-11-20T13:23:00.937Z,4.67
2022-11-20T13:25:27.426Z,4.65
2022-11-20T13:27:55.522Z,4.67
2022-11-20T13:30:30.070Z,4.70
2022-11-20T13:33:22.404Z,4.61
2022-11-20T13:35:57.639Z,4.58
2022-11-20T13:38:24.088Z,4.66
2022-11-20T13:40:59.503Z,4.67
2022-11-20T13:43:42.229Z,4.68
2022-11-20T13:46:10.754Z,4.67
2022-11-20T13:48:43.395Z,4.55
2022-11-20T13:51:31.150Z,4.52
2022-11-20T13:54:27.885Z,4.61
2022-11-20T13:57:29.932Z,4.71
2022-11-20T14:00:11.298Z,4.52
2022-11-20T14:02:38.425Z,4.55
2022-11-20T14:05:06.408Z,4.52
2022-11-20T14:07:39.064Z,4.51
2022-11-20T14:10:05.876Z,4.46
2022-11-20T14:12:34.611Z,4.52
2022-11-20T14:15:01.364Z,4.51
2022-11-20T14:17:32.297Z,4.61
2022-11-20T14:20:07.103Z,4.56
2022-11-20T14:22:33.555Z,4.64
2022-11-20T14:25:08.152Z,4.62
2022-11-20T14:27:39.858Z,4.72
2022-11-20T14:30:14.030Z,4.75
2022-11-20T14:32:41.943Z,4.78
2022-11-20T14:35:11.042Z,4.73
2022-11-20T14:37:40.213Z,4.63
2022-11-20T14:40:31.450Z,4.64
2022-11-20T14:43:31.058Z,4.61
2022-11-20T14:46:02.289Z,4.63
2022-11-20T14:48:33.606Z,4.70
2022-11-20T14:51:00.171Z,4.75
2022-11-20T14:53:26.830Z,4.70
2022-11-20T14:56:02.139Z,4.78
2022-11-20T14:58:34.165Z,4.69
2022-11-20T15:01:04.281Z,4.77
2022-11-20T15:03:41.882Z,4.71
2022-11-20T15:06:12.602Z,4.72
2022-11-20T15:08:39.149Z,4.73
2022-11-20T15:11:19.233Z,4.72
2022-11-20T15:13:45.832Z,4.59
2022-11-20T15:16:21.252Z,4.65
2022-11-20T15:18:48.319Z,4.64
2022-11-20T15:21:17.404Z,4.68
2022-11-20T15:23:44.645Z,4.75
2022-11-20T15:26:18.459Z,4.76
2022-11-20T15:28:48.754Z,4.72
2022-11-20T15:31:18.089Z,4.75
2022-11-20T15:33:44.921Z,4.75
2022-11-20T15:36:11.521Z,4.75
2022-11-20T15:38:38.188Z,4.72
2022-11-20T15:41:05.306Z,4.71
2022-11-20T15:43:31.825Z,4.67
2022-11-20T15:46:03.208Z,4.73
2022-11-20T15:48:59.185Z,4.72
2022-11-20T15:51:31.068Z,4.81
2022-11-20T15:53:58.292Z,4.89
2022-11-20T15:56:25.626Z,4.88
2022-11-20T15:58:52.087Z,4.84
2022-11-20T16:01:22.483Z,4.83
2022-11-20T16:03:49.304Z,4.88
2022-11-20T16:06:17.089Z,4.93
2022-11-20T16:08:43.926Z,4.96
2022-11-20T16:11:14.080Z,4.92
2022-11-20T16:13:59.445Z,4.88
2022-11-20T16:16:31.008Z,4.97
2022-11-20T16:18:58.466Z,4.97
2022-11-20T16:21:31.460Z,4.95
2022-11-20T16:24:02.291Z,4.93
2022-11-20T16:26:29.205Z,4.94
2022-11-20T16:28:56.718Z,4.96
2022-11-20T16:31:23.276Z,4.88
2022-11-20T16:33:54.738Z,4.96
2022-11-20T16:36:23.399Z,4.97
2022-11-20T16:38:57.959Z,4.97
2022-11-20T16:41:26.613Z,4.99
2022-11-20T16:43:57.999Z,4.99
2022-11-20T16:46:30.408Z,4.99
2022-11-20T16:48:59.139Z,5.00
2022-11-20T16:51:26.722Z,4.99
2022-11-20T16:53:55.845Z,4.93
2022-11-20T16:56:25.045Z,4.94
2022-11-20T16:58:53.536Z,4.98
2022-11-20T17:01:21.552Z,4.99
2022-11-20T17:03:56.116Z,5.04
2022-11-20T17:06:25.495Z,5.02
2022-11-20T17:08:53.473Z,5.05
2022-11-20T17:11:20.066Z,5.03
2022-11-20T17:13:47.223Z,4.98
2022-11-20T17:16:22.566Z,4.91
2022-11-20T17:18:52.152Z,4.78
2022-11-20T17:21:19.644Z,4.89
2022-11-20T17:23:47.169Z,4.87
2022-11-20T17:26:18.996Z,4.90
2022-11-20T17:28:46.850Z,4.88
2022-11-20T17:31:16.131Z,4.80
2022-11-20T17:33:45.304Z,4.87
2022-11-20T17:36:14.403Z,4.89
2022-11-20T17:38:41.140Z,4.90
2022-11-20T17:41:19.911Z,4.88
2022-11-20T17:43:46.536Z,4.89
2022-11-20T17:46:14.412Z,4.85
2022-11-20T17:48:44.056Z,4.87
2022-11-20T17:51:13.632Z,4.84
2022-11-20T17:53:42.284Z,4.80
2022-11-20T17:56:28.203Z,4.67
2022-11-20T17:58:55.022Z,4.68
2022-11-20T18:01:21.900Z,4.62
2022-11-20T18:04:07.283Z,4.62
2022-11-20T18:06:52.018Z,4.65
2022-11-20T18:09:38.865Z,4.63
2022-11-20T18:12:25.719Z,4.74
2022-11-20T18:15:12.534Z,4.75
2022-11-20T18:17:59.385Z,4.78
2022-11-20T18:20:46.136Z,4.81
2022-11-20T18:23:33.795Z,4.77
2022-11-20T18:26:20.634Z,4.74
2022-11-20T18:29:07.627Z,4.76
2022-11-20T18:31:54.880Z,4.79
2022-11-20T18:34:41.748Z,4.81
2022-11-20T18:37:28.600Z,4.83
2022-11-20T18:40:15.500Z,4.84
2022-11-20T18:43:21.112Z,4.85
2022-11-20T18:46:08.005Z,4.86
2022-11-20T18:48:54.952Z,4.78
2022-11-20T18:51:44.085Z,4.85
2022-11-20T18:54:31.053Z,4.90
2022-11-20T18:57:19.478Z,4.88
2022-11-20T19:00:09.613Z,4.89
2022-11-20T19:02:56.825Z,4.75
2022-11-20T19:05:43.649Z,4.64
2022-11-20T19:08:30.594Z,4.90
2022-11-20T19:11:18.786Z,4.83
2022-11-20T19:14:06.085Z,4.87
2022-11-20T19:16:52.956Z,4.85
2022-11-20T19:19:39.992Z,4.85
2022-11-20T19:22:26.818Z,4.88
2022-11-20T19:25:13.717Z,4.89
2022-11-20T19:28:00.528Z,4.96
2022-11-20T19:30:47.263Z,4.93
2022-11-20T19:33:35.035Z,4.96
2022-11-20T19:36:25.344Z,4.87
2022-11-20T19:39:12.548Z,4.79
2022-11-20T19:41:59.365Z,4.80
2022-11-20T19:44:46.123Z,4.88
2022-11-20T19:48:00.526Z,4.88
2022-11-20T19:50:39.693Z,4.94
2022-11-20T19:53:26.507Z,4.89
2022-11-20T19:56:13.523Z,4.92
2022-11-20T19:59:00.782Z,4.80
2022-11-20T20:01:47.537Z,4.90
2022-11-20T20:04:34.412Z,4.78
2022-11-20T20:07:21.307Z,4.79
2022-11-20T20:10:08.724Z,4.78
2022-11-20T20:12:55.742Z,4.74
2022-11-20T20:15:42.484Z,4.76
2022-11-20T20:18:29.256Z,4.75
2022-11-20T20:21:18.427Z,4.90
2022-11-20T20:24:05.703Z,4.87
2022-11-20T20:26:56.918Z,4.84
2022-11-20T20:29:45.245Z,4.94
2022-11-20T20:32:32.900Z,4.89
2022-11-20T20:35:19.703Z,4.97
2022-11-20T20:38:06.521Z,4.98
2022-11-20T20:40:53.300Z,4.97
2022-11-20T20:43:59.290Z,5.02
2022-11-20T20:46:46.085Z,4.99
2022-11-20T20:49:33.551Z,5.07
2022-11-20T20:52:20.525Z,5.08
2022-11-20T20:55:07.755Z,5.05
2022-11-20T20:57:55.358Z,4.99
2022-11-20T21:00:42.183Z,4.98
2022-11-20T21:03:32.898Z,5.00
2022-11-20T21:06:19.933Z,4.94
2022-11-20T21:09:06.716Z,4.98
2022-11-20T21:11:53.459Z,4.99
2022-11-20T21:14:40.356Z,5.03
2022-11-20T21:17:27.107Z,5.14
2022-11-20T21:20:33.914Z,5.21
2022-11-20T21:23:20.789Z,5.18
2022-11-20T21:26:09.174Z,5.22
2022-11-20T21:28:57.508Z,5.17
2022-11-20T21:31:44.479Z,5.18
2022-11-20T21:34:31.274Z,5.17
2022-11-20T21:37:18.067Z,5.16
2022-11-20T21:40:05.366Z,5.17
2022-11-20T21:42:53.418Z,5.01
2022-11-20T21:45:40.179Z,5.14
2022-11-20T21:48:31.486Z,5.19
2022-11-20T21:51:20.724Z,5.16
2022-11-20T21:54:07.644Z,5.01
2022-11-20T21:56:54.453Z,5.08
2022-11-20T21:59:41.271Z,5.06
2022-11-20T22:02:28.067Z,5.11
2022-11-20T22:05:14.864Z,5.17
2022-11-20T22:08:01.926Z,5.15
2022-11-20T22:10:55.822Z,4.99
2022-11-20T22:14:01.337Z,4.97
2022-11-20T22:16:50.264Z,4.97
2022-11-20T22:19:37.041Z,5.01
2022-11-20T22:22:23.841Z,5.03
2022-11-20T22:25:10.615Z,5.05
2022-11-20T22:27:57.398Z,5.05
2022-11-20T22:30:44.149Z,5.03
2022-11-20T22:33:32.354Z,4.97
2022-11-20T22:36:28.363Z,4.97
2022-11-20T22:39:15.273Z,4.85
2022-11-20T22:42:02.038Z,4.88
2022-11-20T22:44:48.775Z,5.01
2022-11-20T22:47:35.568Z,5.05
2022-11-20T22:50:22.346Z,4.93
2022-11-20T22:53:09.887Z,4.81
2022-11-20T22:55:56.652Z,4.90
2022-11-20T22:58:46.143Z,4.75
2022-11-20T23:01:35.304Z,4.80
2022-11-20T23:04:22.740Z,4.90
2022-11-20T23:07:09.845Z,4.82
2022-11-20T23:09:56.778Z,4.78
2022-11-20T23:12:43.576Z,4.75
2022-11-20T23:15:30.399Z,4.78
2022-11-20T23:18:17.199Z,4.80
2022-11-20T23:21:15.465Z,4.92
2022-11-20T23:24:02.520Z,4.82
2022-11-20T23:26:50.108Z,4.70
2022-11-20T23:29:36.972Z,4.73
2022-11-20T23:32:23.912Z,4.34
2022-11-20T23:35:10.695Z,4.73
2022-11-20T23:37:57.560Z,4.78
2022-11-20T23:40:48.856Z,4.83
2022-11-20T23:43:35.801Z,4.69
2022-11-20T23:46:22.665Z,4.71
2022-11-20T23:49:09.604Z,4.85
2022-11-20T23:51:56.357Z,4.71
2022-11-20T23:54:43.181Z,4.67
2022-11-20T23:57:30.007Z,4.80
